Time;durP1;ratioP1;P1;durP2;ratioP2;P2;SDS_P1;SDS_P2;PMS_P1;PMS_P2;Temp;Humidity;BMP_temperature;BMP_pressure;BME280_temperature;BME280_humidity;BME280_pressure;Samples;Min_cycle;Max_cycle;Signal;HPM_P1;HPM_P2
2022/05/18 00:02:06;;;;;;;5.95;1.80;;;;;;;8.77;54.26;102206.19;5095538;28;20040;-59
2022/05/18 00:04:51;;;;;;;3.08;1.52;;;;;;;8.71;54.11;102211.22;5091234;28;20131;-60
2022/05/18 00:07:21;;;;;;;6.63;2.00;;;;;;;8.65;54.55;102215.41;5095333;28;20048;-59
2022/05/18 00:09:52;;;;;;;3.78;1.75;;;;;;;8.63;54.73;102217.94;5094937;28;20534;-58
2022/05/18 00:12:21;;;;;;;4.32;2.15;;;;;;;8.62;54.63;102217.91;5094505;28;20432;-59
2022/05/18 00:14:52;;;;;;;3.20;1.23;;;;;;;8.61;54.33;102224.78;5095049;28;20061;-59
2022/05/18 00:17:22;;;;;;;3.55;1.60;;;;;;;8.61;54.78;102222.22;5094917;28;20048;-59
2022/05/18 00:19:59;;;;;;;5.90;1.80;;;;;;;8.58;54.70;102229.88;5094643;28;20135;-59
2022/05/18 00:22:29;;;;;;;2.92;1.80;;;;;;;8.58;54.62;102229.88;5094840;28;20047;-58
2022/05/18 00:25:03;;;;;;;4.18;1.48;;;;;;;8.57;54.37;102230.72;5095306;28;20075;-58
2022/05/18 00:27:31;;;;;;;4.10;1.48;;;;;;;8.57;54.66;102238.47;5094960;28;20052;-58
2022/05/18 00:30:00;;;;;;;4.22;1.70;;;;;;;8.54;54.63;102234.13;5092161;28;20360;-58
2022/05/18 00:32:36;;;;;;;3.55;1.77;;;;;;;8.54;54.54;102228.06;5094601;28;20040;-58
2022/05/18 00:35:23;;;;;;;2.72;1.35;;;;;;;8.54;54.34;102233.25;5094533;28;20353;-58
2022/05/18 00:37:51;;;;;;;2.97;1.52;;;;;;;8.52;54.70;102240.09;5094481;28;20135;-59
2022/05/18 00:40:23;;;;;;;4.10;1.63;;;;;;;8.47;54.81;102237.41;5094170;28;20457;-59
2022/05/18 00:42:50;;;;;;;2.88;1.52;;;;;;;8.44;54.65;102237.31;5089886;28;20456;-59
2022/05/18 00:45:25;;;;;;;5.43;1.88;;;;;;;8.40;55.15;102239.78;5094153;28;20456;-58
2022/05/18 00:47:55;;;;;;;5.90;2.07;;;;;;;8.35;55.16;102237.09;5093723;28;20125;-59
2022/05/18 00:50:44;;;;;;;3.90;1.90;;;;;;;8.31;54.88;102234.34;5094532;28;20063;-59
2022/05/18 00:53:16;;;;;;;6.93;3.15;;;;;;;8.27;55.20;102242.84;5093045;28;20424;-59
2022/05/18 00:55:51;;;;;;;5.32;2.90;;;;;;;8.25;54.85;102245.41;5094518;28;20418;-59
2022/05/18 00:58:21;;;;;;;7.63;2.65;;;;;;;8.19;55.39;102251.28;5093967;28;20052;-58
2022/05/18 01:00:53;;;;;;;7.22;3.00;;;;;;;8.16;55.33;102251.22;5102270;28;20047;-59
2022/05/18 01:03:31;;;;;;;5.30;2.75;;;;;;;8.12;55.38;102254.56;5108441;28;20044;-59
2022/05/18 01:06:24;;;;;;;5.20;2.05;;;;;;;8.11;55.62;102257.97;5074013;28;20147;-59
2022/05/18 01:09:01;;;;;;;4.90;1.70;;;;;;;8.08;55.81;102265.63;5073708;28;20052;-58
2022/05/18 01:11:31;;;;;;;3.67;1.80;;;;;;;8.05;55.62;102262.97;5073589;28;20484;-59
2022/05/18 01:14:07;;;;;;;4.85;1.98;;;;;;;8.03;55.62;102262.06;5073432;28;20161;-59
2022/05/18 01:16:37;;;;;;;4.90;1.98;;;;;;;8.00;55.65;102264.56;5089443;28;20088;-59
2022/05/18 01:19:16;;;;;;;3.70;1.77;;;;;;;7.98;55.79;102266.22;5093502;28;20556;-59
2022/05/18 01:21:55;;;;;;;23.25;3.20;;;;;;;7.93;55.92;102272.97;5093863;28;20048;-59
2022/05/18 01:24:33;;;;;;;4.75;2.00;;;;;;;7.88;56.02;102274.56;5093902;28;20059;-58
2022/05/18 01:27:15;;;;;;;5.68;1.90;;;;;;;7.84;56.18;102273.63;5093334;28;20048;-59
2022/05/18 01:29:44;;;;;;;5.28;2.08;;;;;;;7.83;56.38;102276.16;5093407;28;20362;-58
2022/05/18 01:32:16;;;;;;;4.97;1.92;;;;;;;7.82;56.25;102270.13;5093840;28;20116;-60
2022/05/18 01:34:45;;;;;;;4.82;2.10;;;;;;;7.81;56.27;102278.69;5093613;28;20055;-59
2022/05/18 01:37:15;;;;;;;5.97;2.60;;;;;;;7.80;56.62;102276.03;5093266;28;20063;-60
2022/05/18 01:39:56;;;;;;;4.63;1.95;;;;;;;7.76;56.05;102274.22;5093733;28;20141;-60
2022/05/18 01:42:36;;;;;;;5.10;2.00;;;;;;;7.72;56.69;102280.13;5093354;28;20040;-59
2022/05/18 01:45:12;;;;;;;7.88;3.72;;;;;;;7.71;56.54;102286.13;5087495;28;20036;-60
2022/05/18 01:47:42;;;;;;;6.50;2.67;;;;;;;7.68;56.72;102286.03;5093653;28;20056;-60
2022/05/18 01:50:15;;;;;;;5.90;2.13;;;;;;;7.69;56.62;102287.78;5093586;28;20067;-57
2022/05/18 01:52:42;;;;;;;6.35;2.45;;;;;;;7.67;56.48;102276.53;5091666;28;20492;-59
2022/05/18 01:55:11;;;;;;;8.48;2.75;;;;;;;7.65;56.60;102288.53;5093389;28;20052;-60
2022/05/18 01:57:41;;;;;;;7.80;3.22;;;;;;;7.64;56.87;102289.34;5084366;28;20055;-60
2022/05/18 02:00:09;;;;;;;7.72;3.33;;;;;;;7.61;56.92;102295.31;5092589;28;20056;-60
2022/05/18 02:02:39;;;;;;;7.43;2.83;;;;;;;7.60;56.90;102297.00;5092609;28;20055;-60
2022/05/18 02:05:15;;;;;;;8.43;3.22;;;;;;;7.60;57.04;102289.28;5093323;28;20121;-59
2022/05/18 02:07:42;;;;;;;13.20;3.45;;;;;;;7.63;57.14;102292.78;5093229;28;20048;-60
2022/05/18 02:10:14;;;;;;;5.53;2.40;;;;;;;7.64;56.93;102297.09;5092736;28;20048;-60
2022/05/18 02:12:47;;;;;;;12.32;3.20;;;;;;;7.64;57.28;102294.53;5092519;28;20468;-60
2022/05/18 02:15:17;;;;;;;8.52;2.35;;;;;;;7.66;57.28;102295.44;5093063;28;20135;-60
2022/05/18 02:17:48;;;;;;;6.28;2.53;;;;;;;7.66;57.10;102293.72;5092691;28;20127;-60
2022/05/18 02:20:17;;;;;;;9.48;3.00;;;;;;;7.67;57.18;102299.75;5092179;28;20476;-60
2022/05/18 02:22:47;;;;;;;4.95;2.13;;;;;;;7.70;56.81;102294.69;5092798;28;20137;-59
2022/05/18 02:25:15;;;;;;;5.15;2.30;;;;;;;7.74;56.65;102296.53;5090566;28;20048;-59
2022/05/18 02:27:46;;;;;;;7.30;2.80;;;;;;;7.71;57.08;102299.91;5092924;28;20419;-59
2022/05/18 02:30:17;;;;;;;5.18;2.42;;;;;;;7.68;56.91;102296.34;5093095;28;20117;-58
2022/05/18 02:32:43;;;;;;;6.55;2.40;;;;;;;7.63;57.30;102305.69;5092880;28;20469;-60
2022/05/18 02:35:11;;;;;;;5.18;2.35;;;;;;;7.59;57.70;102303.00;5092711;28;20059;-58
2022/05/18 02:37:42;;;;;;;5.53;2.42;;;;;;;7.63;57.45;102303.09;5092338;28;20407;-60
2022/05/18 02:40:11;;;;;;;8.27;2.08;;;;;;;7.61;57.82;102297.88;5093058;28;20052;-59
2022/05/18 02:42:40;;;;;;;4.60;1.95;;;;;;;7.65;57.87;102298.84;5092555;28;20360;-59
2022/05/18 02:45:11;;;;;;;5.32;1.98;;;;;;;7.67;57.99;102305.81;5092711;28;20161;-60
2022/05/18 02:47:37;;;;;;;4.10;2.00;;;;;;;7.69;58.01;102303.25;5090675;28;20060;-58
2022/05/18 02:50:14;;;;;;;4.55;2.38;;;;;;;7.68;58.34;102306.69;5082232;28;20044;-60
2022/05/18 02:52:42;;;;;;;5.93;2.83;;;;;;;7.68;58.34;102306.69;5093146;28;20079;-60
2022/05/18 02:58:20;;;;;;;7.43;2.60;;;;;;;7.74;58.56;102314.59;5030299;28;20202;-59
2022/05/18 03:01:06;;;;;;;7.35;2.80;;;;;;;7.76;58.36;102320.66;5030238;28;20057;-59
2022/05/18 03:03:35;;;;;;;4.80;2.25;;;;;;;7.76;58.29;102324.13;5050032;28;20730;-58
2022/05/18 03:06:03;;;;;;;4.43;1.83;;;;;;;7.80;58.60;102322.50;5050168;28;20140;-57
2022/05/18 03:08:30;;;;;;;5.00;2.20;;;;;;;7.83;58.77;102323.50;5049480;28;20064;-58
2022/05/18 03:10:57;;;;;;;4.78;1.80;;;;;;;7.89;58.71;102322.78;5050429;28;20061;-59
2022/05/18 03:13:27;;;;;;;5.45;2.35;;;;;;;7.94;58.21;102328.09;5053721;28;20469;-60
2022/05/18 03:15:56;;;;;;;6.60;3.10;;;;;;;7.95;58.52;102322.97;5053124;28;20060;-60
2022/05/18 03:18:27;;;;;;;9.23;3.40;;;;;;;7.94;58.50;102318.63;5054017;28;20053;-60
2022/05/18 03:23:42;;;;;;;7.57;3.08;;;;;;;7.93;58.70;102318.59;5034115;28;20500;-60
2022/05/18 03:26:13;;;;;;;5.30;2.60;;;;;;;7.94;58.46;102321.22;5033933;28;20069;-60
2022/05/18 03:28:51;;;;;;;5.70;2.50;;;;;;;7.93;58.63;102319.47;5047236;28;20052;-59
2022/05/18 03:31:21;;;;;;;9.40;2.72;;;;;;;7.92;58.65;102322.88;5092480;28;20068;-60
2022/05/18 03:33:51;;;;;;;6.28;2.38;;;;;;;7.89;58.76;102323.66;5095030;28;20139;-58
2022/05/18 03:36:20;;;;;;;6.38;2.65;;;;;;;7.93;58.93;102329.78;5096248;28;20052;-59
2022/05/18 03:38:56;;;;;;;9.80;2.72;;;;;;;7.98;58.70;102333.38;5095522;28;20043;-60
2022/05/18 03:41:24;;;;;;;7.70;2.88;;;;;;;8.05;59.00;102337.88;5096223;28;20066;-58
2022/05/18 03:43:54;;;;;;;8.93;2.85;;;;;;;8.13;58.77;102333.78;5096005;28;20389;-60
2022/05/18 03:46:29;;;;;;;6.07;2.42;;;;;;;8.20;58.75;102345.16;5096256;28;20055;-60
2022/05/18 03:48:55;;;;;;;7.43;2.93;;;;;;;8.23;58.62;102340.94;5099264;28;20055;-58
2022/05/18 03:51:23;;;;;;;10.13;3.35;;;;;;;8.29;58.58;102349.69;5116322;28;20043;-60
2022/05/18 03:56:33;;;;;;;6.78;2.38;;;;;;;8.33;58.84;102351.56;5116196;28;20043;-59
2022/05/18 03:59:03;;;;;;;5.97;2.65;;;;;;;8.36;58.33;102356.84;5088861;28;20053;-60
2022/05/18 04:01:35;;;;;;;5.68;2.63;;;;;;;8.36;58.69;102349.97;5075325;28;20640;-60
2022/05/18 04:04:05;;;;;;;8.27;2.78;;;;;;;8.41;58.49;102365.56;5075289;28;20063;-60
2022/05/18 04:06:33;;;;;;;5.80;2.17;;;;;;;8.42;58.40;102359.56;5075306;28;20048;-59
2022/05/18 04:09:01;;;;;;;5.60;2.42;;;;;;;8.49;58.47;102369.25;5075346;28;20052;-60
2022/05/18 04:11:29;;;;;;;7.03;2.38;;;;;;;8.59;59.14;102365.19;5072980;28;20049;-59
2022/05/18 04:13:57;;;;;;;5.97;2.38;;;;;;;8.66;59.01;102367.94;5074752;28;20532;-60
2022/05/18 04:16:24;;;;;;;6.93;2.20;;;;;;;8.76;59.78;102367.34;5088967;28;20052;-58
2022/05/18 04:19:07;;;;;;;5.85;2.25;;;;;;;8.87;59.18;102366.75;5092523;28;20052;-59
2022/05/18 04:21:37;;;;;;;5.65;2.13;;;;;;;8.93;59.11;102377.25;5095034;28;20063;-59
2022/05/18 04:24:06;;;;;;;5.00;2.60;;;;;;;9.00;59.13;102373.97;5094956;28;20048;-59
2022/05/18 04:26:36;;;;;;;6.28;2.63;;;;;;;9.08;59.55;102377.63;5095075;28;20059;-58
2022/05/18 04:29:05;;;;;;;12.77;3.90;;;;;;;9.14;58.95;102382.94;5095303;28;20059;-60
2022/05/18 04:31:34;;;;;;;17.02;5.45;;;;;;;9.19;59.08;102383.91;5107858;28;20126;-59
2022/05/18 04:34:13;;;;;;;11.95;4.32;;;;;;;9.27;59.72;102379.78;5115717;28;20113;-59
2022/05/18 04:36:43;;;;;;;12.85;3.53;;;;;;;9.38;58.90;102387.81;5115273;28;20510;-59
2022/05/18 04:39:12;;;;;;;7.72;3.78;;;;;;;9.48;58.92;102382.88;5115173;28;20062;-59
2022/05/18 04:41:43;;;;;;;11.25;4.10;;;;;;;9.59;58.88;102382.25;5092213;28;20079;-59
2022/05/18 04:44:13;;;;;;;10.82;3.92;;;;;;;9.68;58.77;102390.22;5094842;28;20048;-58
2022/05/18 04:46:43;;;;;;;9.73;4.28;;;;;;;9.83;59.09;102403.47;5110901;28;20376;-58
2022/05/18 04:49:13;;;;;;;12.93;4.18;;;;;;;9.93;58.98;102395.09;5112154;28;20056;-58
2022/05/18 04:51:44;;;;;;;11.15;3.95;;;;;;;10.03;58.80;102399.59;5115192;28;20052;-60
2022/05/18 04:54:14;;;;;;;15.93;3.60;;;;;;;10.12;58.72;102402.38;5106777;28;20135;-60
2022/05/18 04:56:44;;;;;;;7.35;2.20;;;;;;;10.23;58.36;102404.34;5074416;28;20052;-59
2022/05/18 04:59:15;;;;;;;5.22;1.30;;;;;;;10.32;57.63;102405.38;5074378;28;20048;-60
2022/05/18 05:01:45;;;;;;;8.35;2.35;;;;;;;10.43;57.09;102418.59;5073997;28;20556;-60
2022/05/18 05:04:16;;;;;;;8.90;2.22;;;;;;;10.56;57.28;102415.38;5074099;28;20045;-59
2022/05/18 05:06:43;;;;;;;6.55;1.42;;;;;;;10.68;56.32;102405.22;5073838;28;20357;-60
2022/05/18 05:09:12;;;;;;;4.28;1.25;;;;;;;10.78;55.98;102413.16;5086356;28;20052;-62
2022/05/18 05:11:42;;;;;;;3.83;1.55;;;;;;;10.88;55.43;102417.66;5090075;28;20055;-59
2022/05/18 05:14:11;;;;;;;6.28;1.77;;;;;;;10.99;55.25;102421.31;5093915;28;20095;-60
2022/05/18 05:16:40;;;;;;;5.50;1.27;;;;;;;11.10;55.44;102416.31;5093826;28;20602;-60
2022/05/18 05:19:09;;;;;;;7.82;1.13;;;;;;;11.20;54.90;102416.47;5093974;28;20066;-60
2022/05/18 05:21:42;;;;;;;3.85;1.10;;;;;;;11.32;54.54;102410.59;5094077;28;20161;-61
2022/05/18 05:24:18;;;;;;;10.32;1.40;;;;;;;11.42;53.95;102412.47;5107717;28;20060;-61
2022/05/18 05:26:46;;;;;;;;;;;;;;;11.50;53.45;102410.00;5110951;28;20050;-61
2022/05/18 05:29:17;;;;;;;5.40;0.70;;;;;;;11.58;53.38;102414.47;5073754;28;19927;-60
2022/05/18 05:31:47;;;;;;;2.83;1.25;;;;;;;11.78;52.59;102411.28;5072693;28;20074;-61
2022/05/18 05:34:15;;;;;;;3.65;0.52;;;;;;;11.88;52.14;102419.22;5071052;28;20048;-61
2022/05/18 05:36:46;;;;;;;1.70;0.65;;;;;;;12.05;51.74;102416.88;5072990;28;20672;-61
2022/05/18 05:39:15;;;;;;;7.53;1.05;;;;;;;12.23;51.50;102416.19;5073523;28;20067;-61
2022/05/18 05:41:43;;;;;;;0.98;0.30;;;;;;;12.42;50.82;102418.13;5089727;28;20569;-59
2022/05/18 05:44:14;;;;;;;16.58;2.00;;;;;;;12.65;50.44;102413.19;5113782;28;20087;-59
2022/05/18 05:46:42;;;;;;;2.00;0.77;;;;;;;12.91;49.82;102413.44;5097312;28;20048;-60
2022/05/18 05:49:12;;;;;;;1.23;0.40;;;;;;;13.15;49.22;102416.25;5093312;28;20688;-60
2022/05/18 05:51:40;;;;;;;1.90;0.50;;;;;;;13.41;48.71;102426.00;5093580;28;20055;-59
2022/05/18 05:54:16;;;;;;;1.75;0.50;;;;;;;13.62;48.60;102422.69;5092533;28;20052;-60
2022/05/18 05:56:46;;;;;;;1.77;0.40;;;;;;;13.93;47.99;102426.31;5093653;28;20051;-61
2022/05/18 06:02:00;;;;;;;1.23;0.40;;;;;;;14.33;46.47;102436.06;5093285;28;20058;-60
2022/05/18 06:04:33;;;;;;;0.80;0.40;;;;;;;14.46;46.23;102432.63;5093509;28;20079;-60
2022/05/18 06:07:02;;;;;;;0.52;0.30;;;;;;;14.53;46.05;102426.56;5092001;28;20466;-61
2022/05/18 06:09:44;;;;;;;0.93;0.43;;;;;;;14.61;45.12;102429.22;5093477;28;20048;-61
2022/05/18 06:12:15;;;;;;;4.30;0.70;;;;;;;14.66;45.24;102427.50;5092980;28;20131;-61
2022/05/18 06:14:45;;;;;;;5.10;0.57;;;;;;;14.78;45.55;102429.25;5093267;28;20044;-61
2022/05/18 06:17:12;;;;;;;2.30;0.70;;;;;;;14.93;44.99;102436.22;5092710;28;20482;-61
2022/05/18 06:19:42;;;;;;;1.63;0.45;;;;;;;15.07;44.49;102430.13;5092747;28;20349;-60
2022/05/18 06:22:12;;;;;;;3.00;0.63;;;;;;;15.24;44.00;102431.88;5093033;28;20102;-61
2022/05/18 06:24:49;;;;;;;2.72;0.77;;;;;;;15.43;43.58;102438.81;5093256;28;20079;-61
2022/05/18 06:27:19;;;;;;;1.08;0.35;;;;;;;15.62;43.45;102431.88;5092984;28;20393;-61
2022/05/18 06:29:48;;;;;;;2.58;0.35;;;;;;;15.81;42.92;102440.53;5093157;28;20148;-61
2022/05/18 06:32:16;;;;;;;5.90;0.75;;;;;;;15.94;42.59;102444.84;5093195;28;20071;-61
2022/05/18 06:34:44;;;;;;;4.65;0.70;;;;;;;16.15;42.36;102442.16;5092517;28;20040;-61
2022/05/18 06:37:22;;;;;;;2.88;0.35;;;;;;;16.32;42.56;102445.56;5074996;28;20570;-61
2022/05/18 06:39:58;;;;;;;5.38;0.47;;;;;;;16.51;41.41;102450.69;5073035;28;20094;-62
2022/05/18 06:42:26;;;;;;;11.02;0.68;;;;;;;16.67;41.43;102444.53;5075844;28;20131;-60
2022/05/18 06:44:55;;;;;;;6.55;1.13;;;;;;;16.82;40.68;102452.28;5074379;28;20068;-60
2022/05/18 06:47:25;;;;;;;4.05;0.88;;;;;;;16.94;40.54;102449.56;5096661;28;20069;-60
2022/05/18 06:49:54;;;;;;;1.67;0.52;;;;;;;17.06;40.28;102445.97;5096767;28;20133;-60
2022/05/18 06:52:23;;;;;;;1.75;0.68;;;;;;;17.19;39.92;102452.88;5096467;28;20472;-61
2022/05/18 06:54:52;;;;;;;1.50;0.47;;;;;;;17.37;39.60;102451.84;5096188;28;20048;-60
2022/05/18 06:57:21;;;;;;;2.65;0.50;;;;;;;17.51;39.56;102454.31;5095773;28;20171;-61
2022/05/18 06:59:52;;;;;;;3.60;0.57;;;;;;;17.58;39.04;102451.63;5096812;28;20119;-61
2022/05/18 07:02:20;;;;;;;3.63;0.68;;;;;;;17.69;38.83;102458.53;5096825;28;20098;-61
2022/05/18 07:04:48;;;;;;;1.98;0.55;;;;;;;17.77;38.40;102459.34;5096528;28;20071;-61
2022/05/18 07:07:24;;;;;;;1.52;0.70;;;;;;;17.81;38.17;102461.06;5092103;28;22186;-60
2022/05/18 07:10:05;;;;;;;2.33;0.57;;;;;;;17.97;37.81;102466.09;5085180;28;20127;-64
2022/05/18 07:12:37;;;;;;;2.53;0.50;;;;;;;18.10;37.55;102474.69;5083435;28;20141;-62
2022/05/18 07:15:08;;;;;;;3.53;1.10;;;;;;;18.12;37.19;102462.41;5088004;28;20388;-62
2022/05/18 07:17:38;;;;;;;4.55;1.13;;;;;;;18.07;37.24;102461.59;5076306;28;20547;-62
2022/05/18 07:20:14;;;;;;;1.38;0.60;;;;;;;18.02;37.25;102463.41;5075989;28;20083;-62
2022/05/18 07:22:44;;;;;;;1.42;0.65;;;;;;;18.12;37.28;102467.66;5083629;28;20047;-62
2022/05/18 07:25:15;;;;;;;4.97;0.60;;;;;;;18.22;37.03;102465.81;5095402;28;20052;-62
2022/05/18 07:27:45;;;;;;;17.83;1.58;;;;;;;18.40;37.00;102464.72;5096201;28;20056;-62
2022/05/18 07:30:16;;;;;;;1.45;0.70;;;;;;;18.57;36.69;102467.97;5085106;28;20129;-62
2022/05/18 07:32:45;;;;;;;3.60;0.70;;;;;;;18.69;36.17;102475.69;5084998;28;20059;-62
2022/05/18 07:35:15;;;;;;;1.70;0.60;;;;;;;18.82;35.87;102458.88;5086731;28;20044;-62
2022/05/18 07:37:44;;;;;;;0.93;0.47;;;;;;;18.85;35.92;102464.09;5087059;28;20052;-62
2022/05/18 07:40:27;;;;;;;2.80;0.68;;;;;;;19.03;35.42;102462.06;5078822;28;20067;-62
2022/05/18 07:43:01;;;;;;;4.03;0.85;;;;;;;19.13;35.72;102463.63;5091856;28;20048;-62
2022/05/18 07:45:37;;;;;;;4.03;1.00;;;;;;;19.30;35.63;102450.25;5087279;28;20110;-62
2022/05/18 07:48:14;;;;;;;2.58;0.73;;;;;;;19.46;35.42;102455.19;5086982;28;20059;-62
2022/05/18 07:50:51;;;;;;;3.92;0.82;;;;;;;19.63;35.05;102448.78;5085537;28;20486;-62
2022/05/18 07:53:20;;;;;;;1.50;0.50;;;;;;;19.77;34.51;102446.75;5095558;28;20454;-62
2022/05/18 07:56:00;;;;;;;3.08;0.68;;;;;;;19.93;34.91;102450.81;5095838;28;20059;-62
2022/05/18 07:58:29;;;;;;;2.35;0.60;;;;;;;20.07;34.53;102455.81;5094877;28;20091;-62
2022/05/18 08:00:57;;;;;;;2.45;0.52;;;;;;;20.12;34.17;102451.31;5092052;28;20352;-62
2022/05/18 08:03:24;;;;;;;3.00;0.80;;;;;;;20.04;34.36;102451.47;5081344;28;20056;-62
2022/05/18 08:05:53;;;;;;;1.70;0.60;;;;;;;20.04;34.28;102454.09;5075002;28;20083;-62
2022/05/18 08:08:22;;;;;;;2.58;0.52;;;;;;;20.07;34.35;102445.28;5075496;28;20095;-62
2022/05/18 08:16:31;;;;;;;1.27;0.50;;;;;;;20.31;33.56;102459.72;5095435;28;20360;-62
2022/05/18 08:19:00;;;;;;;2.28;0.63;;;;;;;20.41;33.28;102456.00;5095241;28;20054;-62
2022/05/18 08:21:30;;;;;;;6.28;0.80;;;;;;;20.47;33.08;102458.50;5095192;28;20048;-62
2022/05/18 08:23:58;;;;;;;2.65;0.70;;;;;;;20.55;33.00;102456.56;5095121;28;20126;-62
2022/05/18 08:26:36;;;;;;;2.90;0.70;;;;;;;20.65;32.69;102460.72;5087792;28;20068;-62
2022/05/18 08:29:05;;;;;;;1.98;0.50;;;;;;;20.82;32.56;102446.28;5087789;28;20139;-62
2022/05/18 08:31:33;;;;;;;3.80;0.73;;;;;;;20.99;32.29;102449.38;5095321;28;20056;-62
2022/05/18 08:34:00;;;;;;;3.20;0.93;;;;;;;21.17;31.83;102443.63;5090797;28;20049;-62
2022/05/18 08:36:31;;;;;;;8.30;1.00;;;;;;;21.31;31.82;102446.81;5081446;28;20063;-62
2022/05/18 08:39:00;;;;;;;7.80;0.90;;;;;;;21.41;31.69;102439.56;5073065;28;20052;-62
2022/05/18 08:41:36;;;;;;;3.83;0.73;;;;;;;21.50;31.15;102443.72;5076235;28;20044;-62
2022/05/18 08:44:08;;;;;;;2.45;0.60;;;;;;;21.50;31.67;102441.06;5073885;28;20048;-62
2022/05/18 08:46:46;;;;;;;3.03;0.70;;;;;;;21.46;31.59;102434.16;5086901;28;20052;-62
2022/05/18 08:49:22;;;;;;;2.10;0.80;;;;;;;21.44;31.65;102430.69;5083154;28;20063;-62
2022/05/18 08:52:04;;;;;;;2.15;0.50;;;;;;;21.35;31.28;102431.81;5095263;28;20405;-62
2022/05/18 08:54:47;;;;;;;1.48;0.70;;;;;;;21.23;31.28;102426.81;5094929;28;20044;-62
2022/05/18 08:57:28;;;;;;;6.93;0.70;;;;;;;21.16;31.36;102423.44;5093941;28;20052;-62
2022/05/18 09:00:05;;;;;;;3.03;0.60;;;;;;;21.18;31.62;102418.13;5094677;28;20150;-62
2022/05/18 09:02:35;;;;;;;4.60;0.75;;;;;;;21.24;31.52;102418.88;5091326;28;20523;-62
2022/05/18 09:05:06;;;;;;;3.58;0.70;;;;;;;21.35;31.28;102418.63;5085148;28;20050;-62
2022/05/18 09:07:40;;;;;;;2.63;0.70;;;;;;;21.47;31.19;102414.78;5076951;28;20075;-62
2022/05/18 09:10:18;;;;;;;0.65;0.40;;;;;;;21.41;31.45;102411.41;5094548;28;20051;-62
2022/05/18 09:12:53;;;;;;;2.17;0.55;;;;;;;21.44;31.45;102417.50;5093998;28;20523;-63
2022/05/18 09:15:36;;;;;;;0.90;0.40;;;;;;;21.41;31.49;102411.41;5093954;28;20433;-63
2022/05/18 09:18:25;;;;;;;2.60;0.93;;;;;;;21.23;31.23;102411.88;5093614;28;20063;-62
2022/05/18 09:21:02;;;;;;;2.05;0.60;;;;;;;21.11;31.65;102406.88;5086426;28;20055;-62
2022/05/18 09:23:51;;;;;;;3.67;0.50;;;;;;;21.03;31.76;102403.59;5087464;28;20460;-63
2022/05/18 09:27:00;;;;;;;2.10;0.60;;;;;;;20.91;31.54;102401.25;5094354;28;20055;-62
2022/05/18 09:29:52;;;;;;;2.53;0.50;;;;;;;20.72;31.94;102412.22;5088308;28;20049;-62
2022/05/18 09:32:53;;;;;;;2.97;0.60;;;;;;;20.61;32.53;102402.84;5082768;28;20052;-63
2022/05/18 09:35:47;;;;;;;2.22;0.80;;;;;;;20.50;32.23;102397.84;5073786;28;20044;-62
2022/05/18 09:38:24;;;;;;;1.67;0.60;;;;;;;20.50;32.60;102397.84;5073641;28;20059;-62
2022/05/18 09:40:54;;;;;;;1.88;0.35;;;;;;;20.43;32.87;102391.00;5075954;28;20054;-62
2022/05/18 09:43:31;;;;;;;4.80;0.47;;;;;;;20.54;32.36;102396.88;5073697;28;20048;-63
2022/05/18 09:46:17;;;;;;;2.92;0.60;;;;;;;20.41;32.51;102403.31;5086489;28;20113;-63
2022/05/18 09:48:54;;;;;;;1.75;0.57;;;;;;;20.24;32.84;102397.50;5073573;28;20068;-63
2022/05/18 09:51:31;;;;;;;1.83;0.70;;;;;;;20.22;32.93;102399.31;5073669;28;20095;-63
2022/05/18 09:54:07;;;;;;;1.88;0.43;;;;;;;20.30;32.97;102394.78;5073334;28;20059;-63
2022/05/18 09:56:39;;;;;;;0.63;0.45;;;;;;;20.41;32.98;102387.53;5073593;28;20067;-63
2022/05/18 09:59:19;;;;;;;2.25;0.60;;;;;;;20.40;32.70;102389.28;5073990;28;20357;-61
2022/05/18 10:07:37;;;;;;;2.03;0.60;;;;;;;19.92;33.37;102383.31;5091308;28;20093;-61
2022/05/18 10:10:13;;;;;;;2.63;0.80;;;;;;;19.82;33.40;102387.91;5081696;28;20056;-62
2022/05/18 10:12:46;;;;;;;;;;;;;;;19.80;32.65;102388.81;5093544;28;20052;-61
2022/05/18 10:15:35;;;;;;;1.85;0.52;;;;;;;19.98;32.79;102388.44;5087788;28;20367;-62
2022/05/18 10:18:16;;;;;;;3.05;0.60;;;;;;;20.07;32.44;102382.97;5088157;28;20448;-62
2022/05/18 10:21:02;;;;;;;2.70;0.70;;;;;;;20.01;32.96;102383.09;5093023;28;20048;-62
2022/05/18 10:24:04;;;;;;;3.80;0.90;;;;;;;20.10;32.99;102380.25;5100921;28;20051;-62
2022/05/18 10:26:35;;;;;;;1.67;0.60;;;;;;;20.24;32.88;102373.81;5082437;28;20044;-61
2022/05/18 10:29:13;;;;;;;2.30;0.75;;;;;;;20.33;32.67;102384.16;5093299;28;20461;-62
2022/05/18 10:31:46;;;;;;;4.03;0.73;;;;;;;20.38;32.53;102377.03;5080970;28;20464;-62
2022/05/18 10:34:28;;;;;;;50.58;4.28;;;;;;;20.46;32.23;102372.47;5079653;28;20369;-62
2022/05/18 10:37:04;;;;;;;2.90;0.80;;;;;;;20.39;32.46;102373.50;5093665;28;20090;-62
2022/05/18 10:39:40;;;;;;;3.58;0.80;;;;;;;20.36;32.23;102365.66;5092450;28;20412;-62
2022/05/18 10:42:24;;;;;;;3.33;0.95;;;;;;;20.36;31.95;102357.75;5085054;28;20052;-62
2022/05/18 10:45:01;;;;;;;5.15;0.95;;;;;;;20.29;32.38;102356.16;5092570;28;20072;-62
2022/05/18 10:47:36;;;;;;;2.38;0.80;;;;;;;20.32;31.84;102353.47;5085581;28;20361;-62
2022/05/18 10:50:37;;;;;;;3.10;0.88;;;;;;;20.45;31.02;102352.31;5090062;28;20139;-62
2022/05/18 10:53:32;;;;;;;1.45;0.88;;;;;;;20.35;30.62;102345.50;5093249;28;20063;-63
2022/05/18 10:56:14;;;;;;;3.05;0.60;;;;;;;20.30;30.81;102344.75;5092878;28;20063;-63
2022/05/18 10:58:45;;;;;;;6.13;0.90;;;;;;;20.24;30.98;102342.22;5093064;28;20062;-63
2022/05/18 11:01:29;;;;;;;4.22;0.85;;;;;;;20.18;30.68;102338.84;5089278;28;20052;-63
2022/05/18 11:04:05;;;;;;;21.42;2.90;;;;;;;20.26;30.69;102338.66;5081422;28;20372;-63
2022/05/18 11:06:36;;;;;;;6.43;1.30;;;;;;;20.40;30.36;102338.38;5072376;28;20472;-63
2022/05/18 11:09:20;;;;;;;6.78;0.95;;;;;;;20.57;30.03;102330.94;5072552;28;20488;-63
2022/05/18 11:11:55;;;;;;;6.35;1.08;;;;;;;20.66;30.35;102325.44;5076213;28;20066;-63
2022/05/18 11:14:34;;;;;;;2.10;0.80;;;;;;;20.69;30.01;102312.19;5078526;28;20130;-63
2022/05/18 11:17:13;;;;;;;4.55;1.08;;;;;;;20.70;30.02;102311.28;5087378;28;20078;-63
2022/05/18 11:19:52;;;;;;;2.55;0.63;;;;;;;20.73;30.32;102311.19;5080751;28;20059;-63
2022/05/18 11:22:34;;;;;;;4.13;0.77;;;;;;;20.77;29.93;102307.56;5076394;28;20097;-62
2022/05/18 11:25:18;;;;;;;2.97;0.85;;;;;;;20.80;29.77;102296.94;5092470;28;20110;-62
2022/05/18 11:27:51;;;;;;;3.37;0.73;;;;;;;20.84;29.89;102302.16;5092592;28;20135;-62
2022/05/18 11:30:23;;;;;;;3.28;0.60;;;;;;;20.89;30.00;102305.53;5092436;28;20298;-62
2022/05/18 11:33:07;;;;;;;5.55;0.75;;;;;;;20.86;29.95;102295.09;5085971;28;20155;-62
2022/05/18 11:35:47;;;;;;;3.25;0.55;;;;;;;20.81;30.15;102292.56;5088190;28;20113;-62
2022/05/18 11:38:58;;;;;;;2.70;0.70;;;;;;;20.90;30.08;102288.81;5096195;28;20051;-63
2022/05/18 11:41:54;;;;;;;4.55;1.10;;;;;;;20.93;29.62;102286.09;4993782;28;20069;-63
2022/05/18 11:44:36;;;;;;;4.22;0.80;;;;;;;20.80;30.04;102296.09;4993921;28;20162;-62
2022/05/18 11:47:38;;;;;;;2.33;1.10;;;;;;;20.60;29.89;102277.28;5091249;28;20044;-62
2022/05/18 11:50:20;;;;;;;3.45;0.80;;;;;;;20.40;30.72;102269.91;5084058;28;20056;-62
2022/05/18 11:53:01;;;;;;;5.55;0.88;;;;;;;20.31;30.94;102270.09;5075617;28;20461;-62
2022/05/18 11:55:49;;;;;;;3.60;0.75;;;;;;;20.28;30.88;102271.00;5081413;28;20092;-62
2022/05/18 11:58:46;;;;;;;22.05;2.42;;;;;;;20.32;31.17;102263.94;5094831;28;20059;-62
2022/05/18 12:01:28;;;;;;;2.47;0.85;;;;;;;20.42;31.09;102265.47;5094309;28;20147;-62
2022/05/18 12:04:27;;;;;;;4.35;0.90;;;;;;;20.49;30.92;102269.69;5085306;28;20083;-62
2022/05/18 12:07:24;;;;;;;22.40;2.53;;;;;;;20.46;30.85;102262.72;5088755;28;20058;-62
2022/05/18 12:10:07;;;;;;;2.35;0.40;;;;;;;20.42;31.11;102257.56;5094801;28;20125;-62
2022/05/18 12:12:45;;;;;;;2.85;0.65;;;;;;;20.29;31.00;102259.63;5093749;28;20705;-62
2022/05/18 12:15:37;;;;;;;3.22;0.75;;;;;;;20.17;30.98;102258.13;5088948;28;20055;-62
2022/05/18 12:18:14;;;;;;;2.05;0.68;;;;;;;20.08;31.44;102247.81;5075008;28;20334;-62
2022/05/18 12:20:54;;;;;;;1.95;0.63;;;;;;;20.04;31.53;102246.16;5080703;28;20128;-63
2022/05/18 12:23:29;;;;;;;2.17;0.50;;;;;;;20.08;31.87;102253.06;5095514;28;20063;-62
2022/05/18 12:26:00;;;;;;;2.85;0.60;;;;;;;20.15;32.30;102248.53;5094972;28;20055;-63